Time;durP1;ratioP1;P1;durP2;ratioP2;P2;SDS_P1;SDS_P2;PMS_P1;PMS_P2;Temp;Humidity;BMP_temperature;BMP_pressure;BME280_temperature;BME280_humidity;BME280_pressure;Samples;Min_cycle;Max_cycle;Signal;HPM_P1;HPM_P2
2022/11/18 00:00:28;;;;;;;3.10;2.05;;;22.50;54.30;;;;;;5012784;28;20197;-45
2022/11/18 00:02:59;;;;;;;3.45;2.42;;;22.50;54.30;;;;;;5021584;28;20675;-46
2022/11/18 00:05:30;;;;;;;3.65;2.22;;;22.50;54.20;;;;;;5031996;28;20196;-46
2022/11/18 00:08:00;;;;;;;3.17;2.25;;;22.50;54.30;;;;;;5032402;28;20206;-46
2022/11/18 00:10:32;;;;;;;2.80;2.15;;;22.50;54.80;;;;;;5032014;28;20223;-51
2022/11/18 00:16:01;;;;;;;2.75;2.17;;;22.60;54.20;;;;;;5012391;28;20227;-49
2022/11/18 00:18:32;;;;;;;3.22;2.17;;;22.60;54.20;;;;;;5012385;28;20248;-48
2022/11/18 00:21:04;;;;;;;3.20;2.38;;;22.60;54.20;;;;;;5011916;28;20224;-49
2022/11/18 00:23:35;;;;;;;3.08;2.40;;;22.60;54.20;;;;;;5011833;28;20205;-47
2022/11/18 00:26:07;;;;;;;3.42;2.33;;;22.60;54.20;;;;;;5011783;28;20210;-49
2022/11/18 00:28:38;;;;;;;2.45;2.10;;;22.70;54.10;;;;;;5012264;28;20200;-47
2022/11/18 00:31:12;;;;;;;3.00;2.10;;;22.70;54.10;;;;;;5012332;28;20220;-47
2022/11/18 00:33:43;;;;;;;3.22;2.30;;;22.70;54.10;;;;;;5012513;28;20197;-48
2022/11/18 00:36:15;;;;;;;3.08;2.25;;;22.70;54.00;;;;;;5027620;28;20231;-48
2022/11/18 00:38:46;;;;;;;2.35;2.08;;;22.80;54.10;;;;;;5031980;28;20290;-48
2022/11/18 00:41:19;;;;;;;5.38;2.67;;;22.80;54.00;;;;;;5032036;28;20220;-46
2022/11/18 00:43:48;;;;;;;2.47;2.00;;;22.80;54.10;;;;;;5031362;28;20669;-47
2022/11/18 00:46:21;;;;;;;2.13;1.75;;;22.80;54.10;;;;;;5031660;28;20207;-48
2022/11/18 00:48:52;;;;;;;2.47;2.05;;;22.80;54.10;;;;;;5031772;28;20196;-50
2022/11/18 00:51:23;;;;;;;3.75;2.30;;;22.90;54.10;;;;;;5031576;28;20579;-48
2022/11/18 00:53:53;;;;;;;4.45;2.50;;;22.90;54.10;;;;;;5031974;28;20200;-47
2022/11/18 00:56:24;;;;;;;3.55;1.88;;;22.90;54.10;;;;;;5031245;28;20230;-49
2022/11/18 00:58:55;;;;;;;4.35;2.40;;;22.90;54.00;;;;;;5031550;28;20691;-49
2022/11/18 01:01:27;;;;;;;3.30;2.40;;;22.90;54.00;;;;;;5031180;28;20222;-48
2022/11/18 01:03:58;;;;;;;3.45;2.00;;;22.90;54.00;;;;;;5030984;28;20536;-49
2022/11/18 01:06:29;;;;;;;3.10;2.20;;;22.90;54.00;;;;;;5030866;28;20576;-47
2022/11/18 01:08:59;;;;;;;2.97;2.15;;;23.00;54.00;;;;;;5031026;28;20196;-48
2022/11/18 01:14:17;;;;;;;4.10;2.45;;;23.00;53.90;;;;;;5031441;28;20277;-47
2022/11/18 01:16:50;;;;;;;3.03;2.42;;;23.00;53.90;;;;;;5030185;28;20204;-48
2022/11/18 01:19:20;;;;;;;2.17;1.95;;;23.00;53.90;;;;;;5031084;28;20192;-50
2022/11/18 01:21:51;;;;;;;2.88;2.00;;;23.00;53.90;;;;;;5030647;28;20224;-46
2022/11/18 01:24:22;;;;;;;3.95;2.35;;;23.10;54.00;;;;;;5031216;28;20196;-50
2022/11/18 01:26:53;;;;;;;3.47;2.13;;;23.10;54.00;;;;;;5031704;28;20311;-49
2022/11/18 01:29:24;;;;;;;3.25;2.30;;;23.10;53.90;;;;;;5031245;28;20670;-48
2022/11/18 01:31:56;;;;;;;2.72;2.15;;;23.10;54.00;;;;;;5027744;28;20263;-47
2022/11/18 01:34:29;;;;;;;3.42;2.17;;;23.10;54.00;;;;;;5030872;28;20200;-51
2022/11/18 01:37:01;;;;;;;2.42;2.10;;;23.10;54.00;;;;;;5031049;28;20260;-46
2022/11/18 01:39:32;;;;;;;3.42;2.40;;;23.10;53.90;;;;;;5031389;28;20200;-46
2022/11/18 01:42:03;;;;;;;2.65;2.30;;;23.10;53.90;;;;;;5031601;28;20698;-48
2022/11/18 01:44:58;;;;;;;4.00;2.33;;;23.20;53.90;;;;;;5031051;28;20211;-46
2022/11/18 01:47:33;;;;;;;3.97;2.15;;;23.20;53.90;;;;;;5030657;28;20196;-46
2022/11/18 01:50:05;;;;;;;3.17;2.53;;;23.20;53.80;;;;;;5031007;28;20188;-50
2022/11/18 01:52:37;;;;;;;2.30;2.08;;;23.20;53.80;;;;;;5031057;28;20212;-48
2022/11/18 01:55:13;;;;;;;4.30;2.17;;;23.20;53.90;;;;;;5031385;28;20285;-48
2022/11/18 01:57:46;;;;;;;3.15;2.50;;;23.30;53.90;;;;;;5031086;28;20208;-47
2022/11/18 02:00:17;;;;;;;3.08;2.22;;;23.30;53.90;;;;;;5030689;28;20215;-49
2022/11/18 02:02:50;;;;;;;2.20;1.75;;;23.30;53.90;;;;;;5028807;28;20578;-47
2022/11/18 02:05:21;;;;;;;3.63;2.20;;;23.30;53.80;;;;;;5031160;28;20196;-47
2022/11/18 02:07:52;;;;;;;4.57;2.53;;;23.30;53.80;;;;;;5030810;28;20562;-48
2022/11/18 02:10:25;;;;;;;2.92;2.22;;;23.30;53.90;;;;;;5030504;28;20563;-47
2022/11/18 02:12:58;;;;;;;4.03;2.22;;;23.30;53.90;;;;;;5030472;28;20692;-47
2022/11/18 02:15:40;;;;;;;2.78;2.05;;;23.30;53.80;;;;;;5030360;28;20589;-47
2022/11/18 02:18:19;;;;;;;2.40;2.20;;;23.30;53.80;;;;;;5030591;28;20204;-49
2022/11/18 02:20:52;;;;;;;4.65;2.65;;;23.30;53.80;;;;;;5030439;28;20204;-49
2022/11/18 02:24:07;;;;;;;2.88;2.08;;;23.40;53.80;;;;;;5030685;28;20196;-47
2022/11/18 02:27:23;;;;;;;2.92;2.20;;;23.40;53.80;;;;;;5021211;28;20196;-48
2022/11/18 02:30:01;;;;;;;3.45;2.10;;;23.40;53.80;;;;;;5033884;28;20192;-49
2022/11/18 02:32:35;;;;;;;2.88;2.03;;;23.40;53.80;;;;;;5033834;28;20558;-48
2022/11/18 02:35:15;;;;;;;3.83;2.10;;;23.40;53.80;;;;;;5033861;28;20597;-49
2022/11/18 02:37:52;;;;;;;3.38;2.33;;;23.40;53.80;;;;;;5033708;28;20192;-47
2022/11/18 02:40:27;;;;;;;2.40;1.90;;;23.40;53.70;;;;;;5033713;28;20568;-47
2022/11/18 02:43:01;;;;;;;3.17;2.17;;;23.40;53.70;;;;;;5034247;28;20578;-46
2022/11/18 02:45:35;;;;;;;2.72;2.33;;;23.40;53.70;;;;;;5033524;28;20195;-57
2022/11/18 02:48:09;;;;;;;3.13;2.10;;;23.40;53.70;;;;;;5033807;28;20649;-58
2022/11/18 02:50:43;;;;;;;2.70;2.05;;;23.40;53.70;;;;;;5033573;28;20208;-51
2022/11/18 02:53:17;;;;;;;2.97;1.90;;;23.40;53.70;;;;;;5033532;28;20209;-47
2022/11/18 02:55:49;;;;;;;2.67;2.10;;;23.40;53.80;;;;;;5033500;28;20225;-53
2022/11/18 02:58:22;;;;;;;2.88;2.22;;;23.40;53.80;;;;;;5033866;28;20201;-52
2022/11/18 03:00:59;;;;;;;4.53;2.28;;;23.40;53.80;;;;;;5020567;28;20533;-56
2022/11/18 03:03:31;;;;;;;4.50;2.45;;;23.40;53.80;;;;;;5016533;28;20212;-53
2022/11/18 03:06:21;;;;;;;2.75;2.10;;;23.50;53.80;;;;;;5029353;28;20201;-54
2022/11/18 03:08:55;;;;;;;3.00;2.05;;;23.50;53.80;;;;;;5048891;28;20439;-59
2022/11/18 03:11:29;;;;;;;2.85;2.10;;;23.50;53.80;;;;;;5032984;28;20215;-52
2022/11/18 03:14:16;;;;;;;4.18;2.50;;;23.50;53.70;;;;;;5033180;28;20196;-58
2022/11/18 03:16:56;;;;;;;2.70;2.22;;;23.40;53.60;;;;;;5032752;28;20231;-58
2022/11/18 03:19:36;;;;;;;2.70;2.08;;;23.50;53.70;;;;;;5033094;28;20184;-55
2022/11/18 03:22:13;;;;;;;2.83;2.28;;;23.50;53.70;;;;;;5033131;28;20228;-56
2022/11/18 03:24:48;;;;;;;2.67;2.10;;;23.50;53.70;;;;;;5032540;28;20188;-56
2022/11/18 03:27:27;;;;;;;3.47;2.30;;;23.50;53.70;;;;;;5032108;28;20203;-50
2022/11/18 03:30:02;;;;;;;2.63;2.20;;;23.50;53.70;;;;;;5020188;28;20537;-53
2022/11/18 03:32:38;;;;;;;2.63;2.05;;;23.50;53.70;;;;;;5012788;28;20216;-53
2022/11/18 03:35:12;;;;;;;3.20;2.05;;;23.50;54.00;;;;;;5026584;28;20196;-46
2022/11/18 03:37:44;;;;;;;2.30;1.88;;;23.50;53.80;;;;;;5031584;28;20651;-53
2022/11/18 03:40:18;;;;;;;2.35;1.80;;;23.50;53.70;;;;;;5028980;28;20200;-51
2022/11/18 03:42:51;;;;;;;3.38;2.20;;;23.50;53.80;;;;;;5032502;28;20225;-48
2022/11/18 03:45:25;;;;;;;2.75;2.08;;;23.50;53.80;;;;;;5031879;28;20196;-55
2022/11/18 03:48:03;;;;;;;3.15;2.50;;;23.50;53.80;;;;;;5032248;28;20192;-58
2022/11/18 03:50:37;;;;;;;2.22;1.88;;;23.50;53.70;;;;;;5031430;28;20198;-54
2022/11/18 03:53:09;;;;;;;2.88;2.15;;;23.50;53.70;;;;;;5032598;28;20192;-50
2022/11/18 03:55:46;;;;;;;2.22;1.95;;;23.50;53.70;;;;;;5031817;28;20212;-57
2022/11/18 03:58:24;;;;;;;2.58;2.00;;;23.50;53.70;;;;;;5031888;28;20642;-55
2022/11/18 04:01:00;;;;;;;3.20;2.05;;;23.50;53.70;;;;;;5031862;28;20220;-55
2022/11/18 04:03:32;;;;;;;2.05;1.83;;;23.50;53.70;;;;;;5032474;28;20199;-54
2022/11/18 04:06:11;;;;;;;3.42;2.30;;;23.50;53.70;;;;;;5032416;28;20286;-56
2022/11/18 04:08:48;;;;;;;2.30;1.95;;;23.50;53.70;;;;;;5031531;28;20198;-54
2022/11/18 04:14:11;;;;;;;2.63;1.95;;;23.50;53.70;;;;;;5031744;28;20195;-54
2022/11/18 04:16:44;;;;;;;2.42;1.77;;;23.50;53.70;;;;;;5031973;28;20220;-48
2022/11/18 04:19:16;;;;;;;2.67;2.05;;;23.50;53.70;;;;;;5032587;28;20196;-52
2022/11/18 04:21:48;;;;;;;3.70;2.03;;;23.50;53.70;;;;;;5031813;28;20228;-50
2022/11/18 04:24:19;;;;;;;2.13;1.80;;;23.50;53.70;;;;;;5032297;28;20207;-54
2022/11/18 04:26:50;;;;;;;1.77;1.60;;;23.50;53.70;;;;;;5032448;28;20199;-48
2022/11/18 04:29:20;;;;;;;2.22;2.03;;;23.50;53.70;;;;;;5031669;28;20207;-59
2022/11/18 04:31:51;;;;;;;1.88;1.77;;;23.50;53.70;;;;;;5031765;28;20707;-55
2022/11/18 04:34:24;;;;;;;2.78;1.98;;;23.50;53.70;;;;;;5031737;28;20196;-57
2022/11/18 04:36:54;;;;;;;2.47;2.00;;;23.50;53.70;;;;;;5032009;28;20590;-57
2022/11/18 04:39:25;;;;;;;3.28;2.15;;;23.50;53.70;;;;;;5031867;28;20207;-55
2022/11/18 04:41:59;;;;;;;2.53;2.17;;;23.50;53.70;;;;;;5032169;28;20230;-53
2022/11/18 04:44:30;;;;;;;2.90;2.05;;;23.50;53.70;;;;;;5031547;28;20200;-54
2022/11/18 04:47:02;;;;;;;2.20;2.00;;;23.50;53.70;;;;;;5031746;28;20207;-50
2022/11/18 04:49:35;;;;;;;1.80;1.70;;;23.50;53.70;;;;;;5032037;28;20207;-52
2022/11/18 04:52:06;;;;;;;2.25;1.80;;;23.50;53.70;;;;;;5031713;28;20738;-56
2022/11/18 04:54:37;;;;;;;1.92;1.73;;;23.50;53.70;;;;;;5031780;28;20372;-55
2022/11/18 04:57:08;;;;;;;2.55;1.98;;;23.50;53.70;;;;;;5031437;28;20223;-52
2022/11/18 04:59:39;;;;;;;2.20;1.75;;;23.50;53.70;;;;;;5031474;28;20227;-54
2022/11/18 05:02:09;;;;;;;1.60;1.50;;;23.50;53.70;;;;;;5031370;28;20231;-54
2022/11/18 05:04:42;;;;;;;2.28;1.85;;;23.50;53.70;;;;;;5031545;28;20709;-50
2022/11/18 05:07:17;;;;;;;2.25;1.80;;;23.50;53.70;;;;;;5031220;28;20315;-47
2022/11/18 05:09:50;;;;;;;1.98;1.52;;;23.50;53.70;;;;;;5031311;28;20265;-48
2022/11/18 05:15:08;;;;;;;2.30;1.65;;;23.40;53.70;;;;;;5031727;28;20238;-47
2022/11/18 05:17:38;;;;;;;1.52;1.40;;;23.40;53.70;;;;;;5031368;28;20231;-52
2022/11/18 05:20:12;;;;;;;1.92;1.67;;;23.40;53.70;;;;;;5031336;28;20628;-53
2022/11/18 05:22:43;;;;;;;1.70;1.60;;;23.40;53.80;;;;;;5030975;28;20311;-51
2022/11/18 05:25:16;;;;;;;2.00;1.80;;;23.40;53.80;;;;;;5031035;28;20192;-47
2022/11/18 05:27:47;;;;;;;1.70;1.60;;;23.40;53.90;;;;;;5031035;28;20200;-54
2022/11/18 05:30:18;;;;;;;1.50;1.40;;;23.40;54.00;;;;;;5031336;28;20207;-47
2022/11/18 05:32:49;;;;;;;2.35;1.63;;;23.40;54.00;;;;;;5031399;28;20256;-47
2022/11/18 05:35:22;;;;;;;1.55;1.45;;;23.40;54.10;;;;;;5027782;28;20231;-52
2022/11/18 05:37:52;;;;;;;2.13;1.50;;;23.40;54.10;;;;;;5027901;28;20259;-47
2022/11/18 05:40:23;;;;;;;2.33;1.60;;;23.40;54.10;;;;;;5031441;28;20199;-49
2022/11/18 05:43:11;;;;;;;2.30;1.70;;;23.40;54.10;;;;;;5031531;28;20243;-46
2022/11/18 05:45:42;;;;;;;2.03;1.63;;;23.40;54.10;;;;;;5031009;28;20200;-46
2022/11/18 05:48:13;;;;;;;2.65;1.92;;;23.40;54.10;;;;;;5031081;28;20196;-48
2022/11/18 05:50:47;;;;;;;1.60;1.50;;;23.40;54.10;;;;;;5030605;28;20287;-48
2022/11/18 05:53:19;;;;;;;2.03;1.75;;;23.40;54.10;;;;;;5030970;28;20206;-48
2022/11/18 05:55:55;;;;;;;1.75;1.58;;;23.40;54.10;;;;;;5031004;28;20283;-46
2022/11/18 05:58:26;;;;;;;1.92;1.52;;;23.40;54.10;;;;;;5030639;28;20286;-46
2022/11/18 06:01:01;;;;;;;1.77;1.60;;;23.30;54.00;;;;;;5030312;28;20266;-47
2022/11/18 06:03:37;;;;;;;2.13;1.85;;;23.30;54.00;;;;;;5034474;28;20207;-47
2022/11/18 06:06:11;;;;;;;2.38;1.73;;;23.30;54.00;;;;;;5034675;28;20214;-49
2022/11/18 06:08:46;;;;;;;1.83;1.50;;;23.40;54.00;;;;;;5034244;28;20199;-47
2022/11/18 06:11:20;;;;;;;1.98;1.63;;;23.30;54.00;;;;;;5033926;28;20631;-47
2022/11/18 06:13:56;;;;;;;1.63;1.48;;;23.40;54.10;;;;;;5034436;28;20199;-46
2022/11/18 06:16:29;;;;;;;1.85;1.35;;;23.30;54.00;;;;;;5034517;28;20262;-49
2022/11/18 06:19:01;;;;;;;2.03;1.70;;;23.30;53.90;;;;;;5034528;28;20199;-46
2022/11/18 06:21:35;;;;;;;1.67;1.58;;;23.30;54.00;;;;;;5034242;28;20236;-47
2022/11/18 06:24:08;;;;;;;2.10;1.90;;;23.30;54.10;;;;;;5034026;28;20258;-49
2022/11/18 06:26:39;;;;;;;1.98;1.70;;;23.30;54.00;;;;;;5034562;28;20204;-49
2022/11/18 06:29:13;;;;;;;1.77;1.67;;;23.30;54.10;;;;;;5034513;28;20196;-48
2022/11/18 06:31:43;;;;;;;2.55;1.77;;;23.30;54.00;;;;;;5034283;28;20227;-47
2022/11/18 06:34:14;;;;;;;2.08;1.73;;;23.30;54.10;;;;;;5034148;28;20637;-47
2022/11/18 06:36:50;;;;;;;1.52;1.42;;;23.20;54.00;;;;;;5014281;28;20235;-46
2022/11/18 06:39:21;;;;;;;1.95;1.70;;;23.20;54.00;;;;;;5014550;28;20200;-46
2022/11/18 06:41:53;;;;;;;2.15;1.70;;;23.20;54.00;;;;;;5014754;28;20685;-46
2022/11/18 06:44:23;;;;;;;1.85;1.63;;;23.20;54.00;;;;;;5014361;28;20650;-46
2022/11/18 06:47:00;;;;;;;2.42;2.10;;;23.20;54.00;;;;;;5014242;28;20263;-47
2022/11/18 06:49:31;;;;;;;1.63;1.52;;;23.20;54.00;;;;;;5013754;28;20656;-51
2022/11/18 06:52:04;;;;;;;1.70;1.60;;;23.20;54.10;;;;;;5013823;28;20230;-47
2022/11/18 06:54:35;;;;;;;2.22;1.70;;;23.20;54.10;;;;;;5013839;28;20197;-53
2022/11/18 06:57:06;;;;;;;2.35;1.85;;;23.10;54.10;;;;;;5013667;28;20685;-47
2022/11/18 06:59:38;;;;;;;1.60;1.50;;;23.10;54.10;;;;;;5013533;28;20192;-47
2022/11/18 07:02:09;;;;;;;1.48;1.38;;;23.10;54.20;;;;;;5013592;28;20216;-51
2022/11/18 07:04:40;;;;;;;1.85;1.65;;;23.10;54.20;;;;;;5016571;28;20200;-52
2022/11/18 07:07:13;;;;;;;1.77;1.63;;;23.10;54.20;;;;;;5033206;28;20200;-47
2022/11/18 07:09:47;;;;;;;1.70;1.60;;;23.10;54.30;;;;;;5033725;28;20719;-48
2022/11/18 07:12:17;;;;;;;1.55;1.45;;;23.10;54.20;;;;;;5033772;28;20216;-52
2022/11/18 07:14:52;;;;;;;1.95;1.75;;;23.10;54.30;;;;;;5032092;28;20207;-48
2022/11/18 07:17:23;;;;;;;2.00;1.80;;;23.00;54.20;;;;;;5032965;28;20238;-48
2022/11/18 07:19:54;;;;;;;1.65;1.55;;;23.10;54.20;;;;;;5033018;28;20204;-47
2022/11/18 07:22:26;;;;;;;1.80;1.70;;;23.00;54.20;;;;;;5033050;28;20239;-48
2022/11/18 07:24:57;;;;;;;1.70;1.60;;;23.00;54.20;;;;;;5033390;28;20717;-49
2022/11/18 07:27:28;;;;;;;1.55;1.38;;;23.00;54.20;;;;;;5032664;28;20223;-47
2022/11/18 07:29:59;;;;;;;2.22;1.73;;;23.00;54.20;;;;;;5017531;28;20193;-47
2022/11/18 07:32:30;;;;;;;1.65;1.55;;;23.00;54.20;;;;;;5013059;28;20571;-47
2022/11/18 07:35:01;;;;;;;2.05;1.90;;;23.00;54.30;;;;;;5019027;28;20605;-48
2022/11/18 07:37:33;;;;;;;1.73;1.63;;;23.00;54.30;;;;;;5032534;28;20220;-50
2022/11/18 07:40:04;;;;;;;1.60;1.50;;;23.00;54.40;;;;;;5032892;28;20211;-47
2022/11/18 07:42:41;;;;;;;1.65;1.55;;;23.00;54.40;;;;;;5031732;28;20294;-49
2022/11/18 07:45:13;;;;;;;1.75;1.65;;;22.90;54.30;;;;;;5017801;28;20200;-47
2022/11/18 07:47:43;;;;;;;1.45;1.35;;;22.90;54.30;;;;;;5032622;28;20196;-48
2022/11/18 07:50:14;;;;;;;1.50;1.40;;;22.90;54.40;;;;;;5032419;28;20208;-46
2022/11/18 07:52:47;;;;;;;1.60;1.50;;;22.90;54.30;;;;;;5026137;28;20722;-48
2022/11/18 07:55:18;;;;;;;1.65;1.48;;;22.90;54.30;;;;;;5032652;28;20254;-48
2022/11/18 07:57:49;;;;;;;1.58;1.48;;;22.90;54.30;;;;;;5033053;28;20374;-47
2022/11/18 08:00:21;;;;;;;1.75;1.63;;;22.90;54.30;;;;;;5033186;28;20200;-49
2022/11/18 08:02:53;;;;;;;2.13;1.85;;;22.90;54.30;;;;;;5032731;28;20224;-48
2022/11/18 08:05:24;;;;;;;1.73;1.63;;;22.90;54.30;;;;;;5032871;28;20262;-49
2022/11/18 08:07:57;;;;;;;2.92;1.75;;;22.80;54.40;;;;;;5032561;28;20204;-46
2022/11/18 08:10:27;;;;;;;1.65;1.55;;;22.80;54.40;;;;;;5032478;28;20652;-47
2022/11/18 08:12:59;;;;;;;3.22;1.92;;;22.80;54.60;;;;;;5032248;28;20212;-52
2022/11/18 08:15:31;;;;;;;2.28;1.65;;;22.80;54.70;;;;;;5032038;28;20204;-48
2022/11/18 08:18:02;;;;;;;2.65;1.90;;;22.80;54.80;;;;;;5032325;28;20753;-47
2022/11/18 08:20:35;;;;;;;2.72;1.77;;;22.70;54.80;;;;;;5032255;28;20196;-48
2022/11/18 08:23:08;;;;;;;2.03;1.60;;;22.70;54.80;;;;;;5031807;28;20201;-47
2022/11/18 08:25:38;;;;;;;1.75;1.40;;;22.70;54.70;;;;;;5031163;28;20656;-46
2022/11/18 08:28:09;;;;;;;3.00;1.70;;;22.70;54.60;;;;;;5031926;28;20637;-48
2022/11/18 08:30:41;;;;;;;2.13;1.50;;;22.70;54.70;;;;;;5032066;28;20200;-46
2022/11/18 08:33:12;;;;;;;2.13;1.70;;;22.70;54.80;;;;;;5032157;28;20287;-47
2022/11/18 08:35:43;;;;;;;2.80;1.88;;;22.70;54.80;;;;;;5031844;28;20673;-48
2022/11/18 08:38:16;;;;;;;2.78;1.63;;;22.70;54.80;;;;;;5031968;28;20224;-51
2022/11/18 08:40:49;;;;;;;4.65;1.95;;;22.70;54.80;;;;;;5031914;28;20200;-48
2022/11/18 08:43:22;;;;;;;3.40;1.67;;;22.70;55.00;;;;;;5032510;28;20203;-55
2022/11/18 08:45:53;;;;;;;2.50;1.58;;;22.70;55.20;;;;;;5031854;28;20249;-52
2022/11/18 08:48:24;;;;;;;3.70;1.95;;;22.70;55.30;;;;;;5024568;28;20200;-49
2022/11/18 08:50:55;;;;;;;3.92;1.75;;;22.70;55.30;;;;;;5013138;28;20201;-50
2022/11/18 08:53:28;;;;;;;3.50;1.73;;;22.60;55.60;;;;;;5020992;28;20194;-58
2022/11/18 08:55:59;;;;;;;2.65;1.75;;;22.60;55.80;;;;;;5011241;28;20193;-51
2022/11/18 08:58:30;;;;;;;2.72;1.75;;;22.70;55.90;;;;;;5030944;28;20235;-52
2022/11/18 09:01:05;;;;;;;3.20;1.90;;;22.60;55.60;;;;;;5031224;28;20220;-55
2022/11/18 09:03:36;;;;;;;3.28;1.65;;;22.60;55.60;;;;;;5030661;28;20192;-57
2022/11/18 09:06:11;;;;;;;1.92;1.75;;;22.60;55.60;;;;;;5030597;28;20184;-53
2022/11/18 09:08:47;;;;;;;3.55;1.80;;;22.60;55.60;;;;;;5030920;28;20238;-55
2022/11/18 09:11:19;;;;;;;3.17;1.98;;;22.60;55.60;;;;;;5031047;28;20730;-58
2022/11/18 09:13:53;;;;;;;3.00;2.08;;;22.60;55.60;;;;;;5029885;28;20192;-55
2022/11/18 09:16:24;;;;;;;2.80;1.90;;;22.60;55.60;;;;;;5031177;28;20207;-48
2022/11/18 09:18:55;;;;;;;2.05;1.73;;;22.60;55.60;;;;;;5031100;28;20216;-54
2022/11/18 09:21:26;;;;;;;5.00;2.03;;;22.60;55.60;;;;;;5030793;28;20263;-53
2022/11/18 09:23:59;;;;;;;2.47;1.73;;;22.50;55.60;;;;;;5030382;28;20197;-48
2022/11/18 09:26:30;;;;;;;3.53;1.88;;;22.50;55.80;;;;;;5029193;28;20422;-58
2022/11/18 09:29:01;;;;;;;2.38;1.60;;;22.50;55.70;;;;;;5028882;28;20564;-59
2022/11/18 09:31:32;;;;;;;3.72;1.75;;;22.50;55.80;;;;;;5030238;28;20246;-56
2022/11/18 09:34:03;;;;;;;3.47;1.83;;;22.50;55.90;;;;;;5030611;28;20191;-60
2022/11/18 09:36:34;;;;;;;2.95;1.65;;;22.50;56.00;;;;;;5019579;28;20221;-58
2022/11/18 09:39:06;;;;;;;2.38;1.60;;;22.50;55.80;;;;;;5026730;28;20255;-60
2022/11/18 09:41:59;;;;;;;2.88;1.80;;;22.50;55.80;;;;;;5034841;28;20216;-60
2022/11/18 09:44:52;;;;;;;3.70;1.70;;;22.50;55.80;;;;;;5033858;28;20267;-60
2022/11/18 09:47:29;;;;;;;2.42;1.60;;;22.40;55.80;;;;;;5023659;28;20255;-49
2022/11/18 09:50:02;;;;;;;4.28;1.73;;;22.50;55.70;;;;;;5017234;28;20199;-59
2022/11/18 09:52:40;;;;;;;2.83;1.70;;;22.50;55.80;;;;;;5013436;28;20239;-61
2022/11/18 09:55:16;;;;;;;4.70;1.98;;;22.40;55.70;;;;;;5014733;28;20200;-48
2022/11/18 09:57:49;;;;;;;4.40;1.90;;;22.40;55.80;;;;;;5014447;28;20775;-59
2022/11/18 10:00:22;;;;;;;2.70;1.63;;;22.40;56.00;;;;;;5021921;28;20207;-52
2022/11/18 10:03:00;;;;;;;2.05;1.48;;;22.40;56.20;;;;;;5028724;28;20215;-52
2022/11/18 10:05:32;;;;;;;3.55;1.48;;;22.40;56.40;;;;;;5040233;28;20202;-55
2022/11/18 10:08:23;;;;;;;2.38;1.60;;;22.40;56.50;;;;;;5039084;28;20223;-54
2022/11/18 10:11:03;;;;;;;2.75;1.75;;;22.30;56.50;;;;;;5034130;28;20192;-52
2022/11/18 10:13:49;;;;;;;2.75;1.65;;;22.40;56.30;;;;;;5034727;28;20200;-50
2022/11/18 10:16:38;;;;;;;2.67;1.77;;;22.30;56.20;;;;;;5013882;28;20196;-58
2022/11/18 10:19:26;;;;;;;2.58;1.63;;;22.30;56.10;;;;;;5032330;28;20274;-55
2022/11/18 10:22:23;;;;;;;2.58;1.40;;;22.30;56.20;;;;;;5033510;28;20266;-57
2022/11/18 10:24:54;;;;;;;1.70;1.30;;;22.30;56.30;;;;;;5033550;28;20601;-51
2022/11/18 10:27:36;;;;;;;3.13;1.63;;;22.30;56.20;;;;;;5033933;28;20192;-55
2022/11/18 10:30:17;;;;;;;1.50;1.30;;;22.30;56.30;;;;;;5034101;28;20204;-48
2022/11/18 10:33:06;;;;;;;3.03;1.90;;;22.30;56.20;;;;;;5033641;28;20810;-53
2022/11/18 10:35:38;;;;;;;2.75;1.42;;;22.30;56.30;;;;;;5033974;28;20206;-56
2022/11/18 10:38:18;;;;;;;3.70;1.58;;;22.30;56.50;;;;;;5033878;28;20595;-50
2022/11/18 10:41:00;;;;;;;1.77;1.52;;;22.30;56.60;;;;;;5034210;28;20218;-57
2022/11/18 10:43:53;;;;;;;1.85;1.30;;;22.30;56.80;;;;;;5034139;28;20196;-57
2022/11/18 10:46:30;;;;;;;3.25;1.60;;;22.20;56.60;;;;;;5012168;28;20602;-53
2022/11/18 10:49:18;;;;;;;4.18;1.60;;;22.20;56.80;;;;;;5014364;28;20212;-51
2022/11/18 10:52:05;;;;;;;3.90;1.92;;;22.20;56.90;;;;;;5014215;28;20216;-48
2022/11/18 10:54:36;;;;;;;2.65;1.60;;;22.20;56.90;;;;;;5014134;28;20275;-49
2022/11/18 10:57:13;;;;;;;3.63;1.80;;;22.30;56.90;;;;;;5013963;28;20575;-56
2022/11/18 10:59:51;;;;;;;2.28;1.52;;;22.30;57.10;;;;;;5013803;28;20201;-55
2022/11/18 11:02:25;;;;;;;2.88;1.67;;;22.30;57.10;;;;;;5013620;28;20225;-52
2022/11/18 11:04:56;;;;;;;2.80;1.60;;;22.30;57.20;;;;;;5013780;28;20197;-54
2022/11/18 11:07:30;;;;;;;2.35;1.45;;;22.30;57.40;;;;;;5014149;28;20200;-52
2022/11/18 11:10:21;;;;;;;4.57;1.88;;;22.30;57.30;;;;;;5014004;28;20204;-53
2022/11/18 11:12:57;;;;;;;4.00;1.52;;;22.30;57.40;;;;;;5013981;28;20688;-54
2022/11/18 11:15:35;;;;;;;2.83;1.60;;;22.30;57.40;;;;;;5028283;28;20236;-49
2022/11/18 11:20:57;;;;;;;3.17;1.75;;;22.30;57.40;;;;;;5033124;28;20307;-50
2022/11/18 11:23:29;;;;;;;2.35;1.52;;;22.20;58.00;;;;;;5033629;28;20196;-57
2022/11/18 11:26:03;;;;;;;4.70;1.95;;;22.20;57.40;;;;;;5033800;28;20257;-57
2022/11/18 11:28:39;;;;;;;3.10;1.77;;;22.20;57.40;;;;;;5033613;28;20195;-60
2022/11/18 11:31:17;;;;;;;2.75;1.70;;;22.20;57.60;;;;;;5033383;28;20605;-60
2022/11/18 11:34:00;;;;;;;3.83;1.67;;;22.20;57.60;;;;;;5033337;28;20207;-58
2022/11/18 11:36:43;;;;;;;1.95;1.52;;;22.20;57.70;;;;;;5032279;28;20188;-49
2022/11/18 11:39:45;;;;;;;2.58;1.40;;;22.20;57.70;;;;;;5033380;28;20250;-55
2022/11/18 11:42:26;;;;;;;2.60;1.38;;;22.20;57.70;;;;;;5031307;28;20239;-53
2022/11/18 11:45:11;;;;;;;1.75;1.50;;;22.20;57.70;;;;;;5032877;28;20207;-54
2022/11/18 11:48:04;;;;;;;2.63;1.30;;;22.20;57.70;;;;;;5031353;28;20648;-50
2022/11/18 11:50:54;;;;;;;2.67;1.40;;;22.20;57.80;;;;;;5032846;28;20211;-50
2022/11/18 11:53:52;;;;;;;3.33;1.40;;;22.20;57.70;;;;;;5032423;28;20196;-51
2022/11/18 11:56:28;;;;;;;1.90;1.23;;;22.20;57.80;;;;;;5032515;28;20238;-52
2022/11/18 11:59:12;;;;;;;2.13;1.05;;;22.10;57.90;;;;;;5032145;28;20228;-50
2022/11/18 12:01:54;;;;;;;2.97;1.10;;;22.10;58.00;;;;;;5032252;28;20687;-50
2022/11/18 12:04:39;;;;;;;1.85;1.40;;;22.10;58.00;;;;;;5032709;28;20196;-52
2022/11/18 12:07:19;;;;;;;4.53;1.48;;;22.10;58.00;;;;;;5032278;28;20200;-55
2022/11/18 12:10:07;;;;;;;2.45;1.30;;;22.10;58.00;;;;;;5032303;28;20206;-50
2022/11/18 12:12:45;;;;;;;1.35;1.10;;;22.10;58.00;;;;;;5032603;28;20311;-55
2022/11/18 12:15:28;;;;;;;2.75;1.50;;;22.10;58.00;;;;;;5032525;28;20733;-52
2022/11/18 12:18:06;;;;;;;2.20;1.23;;;22.10;57.90;;;;;;5032061;28;20577;-55
2022/11/18 12:20:49;;;;;;;1.27;1.10;;;22.10;58.10;;;;;;5031718;28;20196;-58
2022/11/18 12:23:24;;;;;;;2.38;1.30;;;22.10;58.00;;;;;;5031725;28;20200;-61
2022/11/18 12:25:57;;;;;;;1.55;1.23;;;22.10;58.10;;;;;;5031670;28;20265;-58
2022/11/18 12:28:34;;;;;;;2.58;1.15;;;22.00;58.10;;;;;;5031945;28;20203;-54
2022/11/18 12:31:35;;;;;;;2.53;1.08;;;22.00;58.30;;;;;;5032201;28;20216;-58
2022/11/18 12:34:29;;;;;;;2.05;1.10;;;22.00;58.20;;;;;;5032360;28;20640;-55
2022/11/18 12:37:41;;;;;;;2.33;1.40;;;22.00;58.30;;;;;;5032127;28;20671;-60
2022/11/18 12:40:32;;;;;;;3.80;1.38;;;22.00;58.20;;;;;;5031751;28;20227;-57
2022/11/18 12:45:59;;;;;;;2.90;1.40;;;22.00;58.20;;;;;;5032037;28;20721;-56
2022/11/18 12:48:47;;;;;;;3.10;1.48;;;21.90;58.30;;;;;;5032007;28;20678;-51
2022/11/18 12:51:47;;;;;;;3.50;1.35;;;21.90;58.20;;;;;;5031611;28;20223;-55
2022/11/18 12:54:34;;;;;;;2.22;1.15;;;21.90;58.20;;;;;;5031663;28;20668;-50
2022/11/18 12:57:06;;;;;;;2.83;1.27;;;21.90;58.30;;;;;;5031915;28;20261;-56
2022/11/18 12:59:39;;;;;;;2.85;1.45;;;21.90;58.20;;;;;;5031441;28;20231;-53
2022/11/18 13:02:25;;;;;;;3.25;1.30;;;21.90;58.40;;;;;;5031214;28;20250;-52
2022/11/18 13:05:10;;;;;;;2.80;1.25;;;21.90;58.40;;;;;;5030785;28;20200;-55
2022/11/18 13:10:40;;;;;;;2.55;1.00;;;21.80;58.30;;;;;;5031350;28;20198;-57
2022/11/18 13:13:25;;;;;;;3.40;1.42;;;21.80;58.30;;;;;;5031402;28;20196;-56
2022/11/18 13:18:54;;;;;;;3.47;1.33;;;21.90;58.50;;;;;;5031479;28;20235;-54
2022/11/18 13:24:25;;;;;;;4.13;1.50;;;21.80;58.70;;;;;;4969446;28;20232;-55
2022/11/18 13:26:59;;;;;;;4.70;1.63;;;21.80;58.60;;;;;;5017399;28;20660;-53
2022/11/18 13:29:37;;;;;;;6.82;1.35;;;21.80;58.80;;;;;;5030793;28;20674;-55
2022/11/18 13:32:22;;;;;;;3.00;1.55;;;21.80;58.70;;;;;;5031118;28;20273;-55
2022/11/18 13:34:54;;;;;;;2.40;1.10;;;21.80;58.60;;;;;;5031173;28;20640;-46
2022/11/18 13:37:27;;;;;;;4.28;1.45;;;21.80;58.70;;;;;;5031329;28;20203;-47
2022/11/18 13:39:58;;;;;;;4.35;1.35;;;21.80;58.70;;;;;;5029138;28;20679;-53
2022/11/18 13:42:32;;;;;;;3.72;1.20;;;21.80;58.60;;;;;;5011645;28;20213;-48
2022/11/18 13:45:04;;;;;;;3.40;1.30;;;21.80;58.70;;;;;;5022207;28;20550;-53
2022/11/18 13:47:40;;;;;;;3.38;1.50;;;21.80;58.70;;;;;;5030995;28;20628;-56
2022/11/18 13:50:23;;;;;;;3.33;1.20;;;21.70;58.60;;;;;;5027364;28;20210;-57
2022/11/18 13:53:03;;;;;;;3.55;1.23;;;21.80;58.70;;;;;;5031310;28;20738;-58
2022/11/18 13:55:37;;;;;;;3.22;1.23;;;21.70;58.70;;;;;;5031199;28;20200;-54